Time;durP1;ratioP1;P1;durP2;ratioP2;P2;SDS_P1;SDS_P2;PMS_P1;PMS_P2;Temp;Humidity;BMP_temperature;BMP_pressure;BME280_temperature;BME280_humidity;BME280_pressure;Samples;Min_cycle;Max_cycle;Signal;HPM_P1;HPM_P2
2021/10/16 00:01:40;;;;;;;3.72;0.90;;;;;;;;;;5070556;28;20399;-83
2021/10/16 00:04:06;;;;;;;3.72;0.90;;;;;;;;;;5069539;28;20048;-83
2021/10/16 00:06:33;;;;;;;3.03;0.95;;;;;;;;;;5066138;28;20068;-83
2021/10/16 00:08:59;;;;;;;3.03;1.10;;;;;;;;;;5065608;28;20056;-83
2021/10/16 00:11:25;;;;;;;4.35;1.10;;;;;;;;;;5071015;28;20067;-82
2021/10/16 00:13:52;;;;;;;3.20;1.00;;;;;;;;;;5067849;28;20080;-83
2021/10/16 00:16:18;;;;;;;3.67;1.10;;;;;;;;;;5069298;28;20025;-83
2021/10/16 00:18:45;;;;;;;3.00;0.80;;;;;;;;;;5070842;28;20460;-84
2021/10/16 00:21:11;;;;;;;2.38;1.00;;;;;;;;;;5065704;28;20051;-83
2021/10/16 00:23:37;;;;;;;4.22;0.98;;;;;;;;;;5064224;28;20116;-83
2021/10/16 00:26:04;;;;;;;2.92;0.90;;;;;;;;;;5066993;28;20045;-83
2021/10/16 00:28:30;;;;;;;2.50;0.73;;;;;;;;;;5065801;28;20400;-82
2021/10/16 00:30:57;;;;;;;6.55;1.00;;;;;;;;;;5066512;28;20133;-83
2021/10/16 00:33:23;;;;;;;4.75;1.13;;;;;;;;;;5065388;28;20033;-83
2021/10/16 00:35:49;;;;;;;3.08;0.90;;;;;;;;;;5063537;28;20668;-83
2021/10/16 00:38:16;;;;;;;4.50;1.00;;;;;;;;;;5065177;28;20067;-83
2021/10/16 00:40:42;;;;;;;1.85;0.82;;;;;;;;;;5064110;28;20060;-82
2021/10/16 00:43:09;;;;;;;3.33;1.00;;;;;;;;;;5057099;28;20053;-82
2021/10/16 00:45:35;;;;;;;2.63;0.88;;;;;;;;;;5069645;28;20060;-84
2021/10/16 00:48:01;;;;;;;3.70;0.82;;;;;;;;;;5073160;28;20110;-82
2021/10/16 00:50:28;;;;;;;3.08;0.82;;;;;;;;;;5073235;28;20064;-82
2021/10/16 00:52:54;;;;;;;4.78;1.15;;;;;;;;;;5063481;28;20067;-82
2021/10/16 00:55:22;;;;;;;4.30;1.02;;;;;;;;;;5075274;28;20504;-82
2021/10/16 00:57:49;;;;;;;2.90;0.90;;;;;;;;;;5063457;28;20079;-82
2021/10/16 01:00:16;;;;;;;3.53;1.00;;;;;;;;;;5063058;28;20060;-82
2021/10/16 01:02:42;;;;;;;3.20;1.13;;;;;;;;;;5071689;28;20056;-82
2021/10/16 01:05:10;;;;;;;2.50;0.90;;;;;;;;;;5059457;28;20048;-83
2021/10/16 01:07:37;;;;;;;4.07;1.00;;;;;;;;;;5068807;28;20475;-83
2021/10/16 01:10:07;;;;;;;2.65;0.90;;;;;;;;;;5067730;28;20079;-83
2021/10/16 01:12:35;;;;;;;3.38;1.02;;;;;;;;;;5068964;28;20060;-82
2021/10/16 01:15:03;;;;;;;5.53;0.90;;;;;;;;;;5070627;28;20056;-84
2021/10/16 01:17:31;;;;;;;7.20;1.27;;;;;;;;;;5070526;28;20090;-84
2021/10/16 01:20:11;;;;;;;3.20;1.08;;;;;;;;;;5068143;28;20066;-83
2021/10/16 01:22:38;;;;;;;5.18;1.10;;;;;;;;;;5067586;28;20060;-83
2021/10/16 01:25:06;;;;;;;3.85;1.13;;;;;;;;;;5070618;28;20064;-84
2021/10/16 01:27:33;;;;;;;2.78;0.80;;;;;;;;;;5071564;28;20094;-83
2021/10/16 01:29:59;;;;;;;4.28;1.00;;;;;;;;;;5070955;28;20569;-84
2021/10/16 01:32:25;;;;;;;4.65;1.10;;;;;;;;;;5067142;28;20123;-84
2021/10/16 01:34:52;;;;;;;2.83;0.73;;;;;;;;;;5068844;28;20036;-84
2021/10/16 01:37:18;;;;;;;2.83;0.90;;;;;;;;;;5069339;28;20090;-84
2021/10/16 01:39:45;;;;;;;3.70;1.02;;;;;;;;;;5070011;28;20545;-84
2021/10/16 01:42:14;;;;;;;2.50;0.80;;;;;;;;;;5058976;28;20083;-84
2021/10/16 01:44:41;;;;;;;4.47;1.10;;;;;;;;;;5068718;28;20051;-85
2021/10/16 01:47:08;;;;;;;4.18;1.10;;;;;;;;;;5062753;28;20499;-84
2021/10/16 01:49:35;;;;;;;3.40;0.82;;;;;;;;;;5069516;28;20121;-83
2021/10/16 01:52:01;;;;;;;4.80;0.93;;;;;;;;;;5068362;28;21201;-84
2021/10/16 01:54:27;;;;;;;3.00;1.20;;;;;;;;;;5075027;28;20056;-84
2021/10/16 01:56:54;;;;;;;3.58;1.10;;;;;;;;;;5070715;28;20053;-84
2021/10/16 01:59:21;;;;;;;3.70;1.15;;;;;;;;;;5067588;28;20142;-83
2021/10/16 02:01:48;;;;;;;4.97;0.95;;;;;;;;;;5068805;28;20134;-83
2021/10/16 02:04:14;;;;;;;4.22;1.00;;;;;;;;;;5067165;28;20063;-84
2021/10/16 02:06:41;;;;;;;4.45;1.00;;;;;;;;;;5062124;28;20032;-83
2021/10/16 02:09:08;;;;;;;4.25;0.90;;;;;;;;;;5079292;28;20031;-83
2021/10/16 02:11:34;;;;;;;2.17;0.90;;;;;;;;;;5057571;28;20068;-83
2021/10/16 02:14:01;;;;;;;3.10;0.85;;;;;;;;;;5070871;28;20048;-84
2021/10/16 02:16:28;;;;;;;2.15;0.80;;;;;;;;;;5066728;28;20125;-84
2021/10/16 02:18:55;;;;;;;2.65;1.00;;;;;;;;;;5067201;28;20137;-84
2021/10/16 02:21:22;;;;;;;4.82;0.90;;;;;;;;;;5064629;28;20067;-82
2021/10/16 02:23:48;;;;;;;3.58;1.08;;;;;;;;;;5066594;28;20048;-84
2021/10/16 02:26:15;;;;;;;5.50;1.30;;;;;;;;;;5065375;28;20161;-84
2021/10/16 02:28:41;;;;;;;3.38;1.10;;;;;;;;;;5068803;28;20060;-85
2021/10/16 02:31:08;;;;;;;4.20;1.10;;;;;;;;;;5061931;28;20079;-84
2021/10/16 02:33:34;;;;;;;4.00;1.10;;;;;;;;;;5066596;28;20068;-83
2021/10/16 02:36:01;;;;;;;3.28;0.80;;;;;;;;;;5069991;28;20061;-84
2021/10/16 02:38:27;;;;;;;1.70;0.88;;;;;;;;;;5060530;28;20064;-82
2021/10/16 02:40:54;;;;;;;2.75;0.90;;;;;;;;;;5069446;28;20095;-83
2021/10/16 02:43:20;;;;;;;4.90;1.05;;;;;;;;;;5066896;28;20080;-83
2021/10/16 02:45:47;;;;;;;4.28;1.10;;;;;;;;;;5067843;28;20503;-83
2021/10/16 02:48:13;;;;;;;2.58;0.80;;;;;;;;;;5063649;28;20032;-83
2021/10/16 02:50:39;;;;;;;3.90;1.10;;;;;;;;;;5067765;28;20068;-83
2021/10/16 02:53:06;;;;;;;2.42;0.90;;;;;;;;;;5066328;28;20060;-83
2021/10/16 02:55:32;;;;;;;3.78;1.00;;;;;;;;;;5070291;28;20053;-81
2021/10/16 02:57:58;;;;;;;3.53;1.10;;;;;;;;;;5073331;28;20051;-83
2021/10/16 03:00:26;;;;;;;3.30;1.20;;;;;;;;;;5068999;28;20087;-83
2021/10/16 03:02:52;;;;;;;3.42;0.90;;;;;;;;;;5068216;28;20071;-83
2021/10/16 03:05:19;;;;;;;3.95;1.02;;;;;;;;;;5070932;28;20060;-83
2021/10/16 03:07:45;;;;;;;5.57;1.10;;;;;;;;;;5065269;28;20067;-83
2021/10/16 03:10:11;;;;;;;3.53;1.10;;;;;;;;;;5066120;28;20060;-83
2021/10/16 03:12:38;;;;;;;3.47;1.00;;;;;;;;;;5075500;28;20068;-82
2021/10/16 03:15:04;;;;;;;2.35;0.77;;;;;;;;;;5063446;28;20060;-83
2021/10/16 03:17:31;;;;;;;3.58;1.30;;;;;;;;;;5050601;28;20048;-83
2021/10/16 03:19:57;;;;;;;2.97;0.90;;;;;;;;;;5059772;28;20105;-83
2021/10/16 03:22:24;;;;;;;2.72;0.90;;;;;;;;;;5069023;28;20138;-83
2021/10/16 03:24:50;;;;;;;2.83;0.98;;;;;;;;;;5062418;28;20064;-82
2021/10/16 03:27:16;;;;;;;2.80;1.02;;;;;;;;;;5067319;28;20515;-83
2021/10/16 03:29:43;;;;;;;5.75;1.10;;;;;;;;;;5063265;28;20064;-83
2021/10/16 03:32:09;;;;;;;2.28;0.80;;;;;;;;;;5065279;28;20064;-83
2021/10/16 03:34:35;;;;;;;3.22;0.82;;;;;;;;;;5065720;28;20492;-82
2021/10/16 03:37:02;;;;;;;2.97;0.80;;;;;;;;;;5070340;28;20067;-82
2021/10/16 03:39:28;;;;;;;5.60;1.08;;;;;;;;;;5067097;28;20109;-83
2021/10/16 03:41:55;;;;;;;2.05;0.80;;;;;;;;;;5067000;28;20060;-83
2021/10/16 03:44:21;;;;;;;3.50;1.15;;;;;;;;;;5067942;28;20077;-83
2021/10/16 03:46:47;;;;;;;2.42;1.02;;;;;;;;;;5056570;28;20032;-83
2021/10/16 03:49:14;;;;;;;4.57;0.90;;;;;;;;;;5063496;28;20091;-84
2021/10/16 03:51:40;;;;;;;3.55;1.38;;;;;;;;;;5067881;28;20072;-83
2021/10/16 03:54:06;;;;;;;5.50;0.98;;;;;;;;;;5064165;28;20029;-84
2021/10/16 03:56:33;;;;;;;2.38;0.63;;;;;;;;;;5069908;28;20049;-83
2021/10/16 03:58:59;;;;;;;2.28;0.90;;;;;;;;;;5072037;28;20133;-84
2021/10/16 04:01:26;;;;;;;3.08;1.02;;;;;;;;;;5070792;28;20055;-83
2021/10/16 04:03:52;;;;;;;5.20;1.40;;;;;;;;;;5071262;28;20074;-84
2021/10/16 04:06:18;;;;;;;3.13;0.80;;;;;;;;;;5070345;28;20056;-84
2021/10/16 04:08:45;;;;;;;3.67;1.23;;;;;;;;;;5066513;28;20125;-83
2021/10/16 04:11:11;;;;;;;4.05;1.05;;;;;;;;;;5068785;28;20052;-83
2021/10/16 04:13:38;;;;;;;2.80;1.08;;;;;;;;;;5071234;28;20041;-83
2021/10/16 04:16:04;;;;;;;2.20;0.90;;;;;;;;;;5070774;28;20052;-84
2021/10/16 04:18:30;;;;;;;4.25;1.10;;;;;;;;;;5070480;28;20056;-82
2021/10/16 04:20:57;;;;;;;3.03;0.90;;;;;;;;;;5070023;28;20059;-83
2021/10/16 04:23:23;;;;;;;4.22;1.05;;;;;;;;;;5070726;28;20060;-83
2021/10/16 04:25:50;;;;;;;3.80;1.15;;;;;;;;;;5071686;28;20110;-83
2021/10/16 04:28:16;;;;;;;4.40;1.20;;;;;;;;;;5070714;28;20068;-83
2021/10/16 04:30:42;;;;;;;4.28;1.35;;;;;;;;;;5069137;28;20482;-82
2021/10/16 04:33:09;;;;;;;3.80;0.85;;;;;;;;;;5070661;28;20060;-83
2021/10/16 04:35:37;;;;;;;3.67;0.82;;;;;;;;;;5071899;28;20060;-82
2021/10/16 04:38:04;;;;;;;5.20;1.35;;;;;;;;;;5071429;28;20057;-83
2021/10/16 04:40:31;;;;;;;3.72;1.17;;;;;;;;;;5069059;28;20064;-83
2021/10/16 04:43:01;;;;;;;2.40;0.90;;;;;;;;;;5068319;28;20044;-83
2021/10/16 04:45:28;;;;;;;3.90;1.40;;;;;;;;;;5071196;28;20106;-83
2021/10/16 04:47:54;;;;;;;4.55;1.02;;;;;;;;;;5071425;28;20495;-84
2021/10/16 04:50:20;;;;;;;2.78;1.00;;;;;;;;;;5059776;28;20064;-83
2021/10/16 04:52:47;;;;;;;5.55;1.25;;;;;;;;;;5064298;28;20072;-83
2021/10/16 04:55:13;;;;;;;3.08;0.98;;;;;;;;;;5068913;28;20060;-83
2021/10/16 04:57:40;;;;;;;3.67;0.93;;;;;;;;;;5065977;28;20049;-83
2021/10/16 05:00:06;;;;;;;2.97;0.98;;;;;;;;;;5068234;28;20048;-83
2021/10/16 05:02:33;;;;;;;4.10;1.30;;;;;;;;;;5069229;28;20048;-83
2021/10/16 05:05:00;;;;;;;3.45;0.98;;;;;;;;;;5062084;28;20068;-84
2021/10/16 05:07:26;;;;;;;3.70;0.90;;;;;;;;;;5063927;28;20131;-84
2021/10/16 05:09:52;;;;;;;4.10;1.13;;;;;;;;;;5066929;28;20129;-84
2021/10/16 05:12:19;;;;;;;2.30;0.90;;;;;;;;;;5063921;28;20068;-83
2021/10/16 05:14:45;;;;;;;3.95;1.15;;;;;;;;;;5064777;28;20053;-83
2021/10/16 05:17:12;;;;;;;2.25;0.93;;;;;;;;;;5068267;28;20060;-84
2021/10/16 05:19:38;;;;;;;2.97;1.27;;;;;;;;;;5068731;28;20067;-83
2021/10/16 05:22:04;;;;;;;4.07;0.77;;;;;;;;;;5068480;28;20121;-84
2021/10/16 05:24:31;;;;;;;2.75;0.93;;;;;;;;;;5069524;28;20056;-84
2021/10/16 05:26:57;;;;;;;3.00;1.00;;;;;;;;;;5068976;28;20060;-84
2021/10/16 05:29:24;;;;;;;3.63;1.08;;;;;;;;;;5068556;28;20055;-84
2021/10/16 05:31:50;;;;;;;2.33;0.88;;;;;;;;;;5067658;28;20052;-84
2021/10/16 05:34:16;;;;;;;4.00;1.20;;;;;;;;;;5067544;28;20063;-84
2021/10/16 05:36:43;;;;;;;4.07;0.90;;;;;;;;;;5067412;28;20063;-83
2021/10/16 05:39:09;;;;;;;3.47;1.27;;;;;;;;;;5063872;28;20056;-84
2021/10/16 05:41:36;;;;;;;3.03;1.20;;;;;;;;;;5071569;28;20098;-83
2021/10/16 05:44:02;;;;;;;2.55;0.90;;;;;;;;;;5064915;28;20404;-84
2021/10/16 05:46:30;;;;;;;2.83;1.00;;;;;;;;;;5066408;28;20035;-83
2021/10/16 05:48:56;;;;;;;4.22;0.90;;;;;;;;;;5066935;28;20069;-84
2021/10/16 05:51:23;;;;;;;2.58;0.80;;;;;;;;;;5065296;28;20071;-83
2021/10/16 05:53:49;;;;;;;3.05;0.93;;;;;;;;;;5065716;28;20056;-83
2021/10/16 05:56:15;;;;;;;3.05;1.05;;;;;;;;;;5070903;28;20772;-84
2021/10/16 05:58:42;;;;;;;3.17;0.82;;;;;;;;;;5072399;28;20060;-83
2021/10/16 06:01:08;;;;;;;2.00;0.80;;;;;;;;;;5070209;28;20431;-82
2021/10/16 06:03:34;;;;;;;3.05;0.90;;;;;;;;;;5064222;28;20032;-82
2021/10/16 06:06:01;;;;;;;2.58;1.20;;;;;;;;;;5069875;28;20063;-82
2021/10/16 06:08:27;;;;;;;5.30;1.15;;;;;;;;;;5069481;28;20152;-83
2021/10/16 06:10:54;;;;;;;3.40;1.00;;;;;;;;;;5066231;28;20117;-84
2021/10/16 06:13:20;;;;;;;3.00;1.02;;;;;;;;;;5068615;28;20204;-84
2021/10/16 06:15:47;;;;;;;2.55;0.82;;;;;;;;;;5064940;28;20489;-84
2021/10/16 06:18:13;;;;;;;1.80;0.80;;;;;;;;;;5068371;28;20040;-84
2021/10/16 06:20:40;;;;;;;2.58;0.82;;;;;;;;;;5078399;28;20491;-83
2021/10/16 06:23:07;;;;;;;4.15;1.00;;;;;;;;;;5072039;28;20086;-83
2021/10/16 06:25:33;;;;;;;4.40;1.00;;;;;;;;;;5066216;28;20056;-82
2021/10/16 06:28:00;;;;;;;2.67;0.85;;;;;;;;;;5068583;28;20109;-84
2021/10/16 06:30:26;;;;;;;3.33;1.15;;;;;;;;;;5068743;28;20056;-83
2021/10/16 06:32:52;;;;;;;2.78;0.93;;;;;;;;;;5067471;28;20071;-83
2021/10/16 06:35:19;;;;;;;2.88;0.90;;;;;;;;;;5070891;28;20059;-84
2021/10/16 06:37:45;;;;;;;2.63;1.15;;;;;;;;;;5065716;28;20029;-83
2021/10/16 06:40:12;;;;;;;3.80;1.33;;;;;;;;;;5065306;28;20047;-84
2021/10/16 06:42:38;;;;;;;2.83;1.10;;;;;;;;;;5072807;28;20433;-82
2021/10/16 06:45:05;;;;;;;4.50;1.10;;;;;;;;;;5070583;28;20060;-84
2021/10/16 06:47:31;;;;;;;3.42;1.17;;;;;;;;;;5066240;28;20143;-84
2021/10/16 06:49:58;;;;;;;2.97;1.23;;;;;;;;;;5068282;28;20055;-84
2021/10/16 06:52:24;;;;;;;3.05;1.10;;;;;;;;;;5067590;28;20171;-84
2021/10/16 06:54:50;;;;;;;3.80;1.10;;;;;;;;;;5066511;28;20052;-84
2021/10/16 06:57:17;;;;;;;2.13;0.82;;;;;;;;;;5067084;28;20044;-84
2021/10/16 06:59:43;;;;;;;4.00;1.25;;;;;;;;;;5066792;28;20068;-84
2021/10/16 07:02:10;;;;;;;3.45;1.10;;;;;;;;;;5070853;28;20059;-84
2021/10/16 07:04:36;;;;;;;3.25;1.15;;;;;;;;;;5066709;28;20045;-84
2021/10/16 07:07:03;;;;;;;3.67;1.30;;;;;;;;;;5068893;28;20052;-84
2021/10/16 07:09:29;;;;;;;3.13;0.93;;;;;;;;;;5064365;28;20056;-84
2021/10/16 07:11:57;;;;;;;3.42;1.02;;;;;;;;;;5063939;28;20119;-84
2021/10/16 07:14:23;;;;;;;2.80;1.08;;;;;;;;;;5069419;28;20052;-84
2021/10/16 07:16:49;;;;;;;5.25;0.90;;;;;;;;;;5067916;28;20617;-84
2021/10/16 07:19:16;;;;;;;3.45;1.10;;;;;;;;;;5062372;28;20060;-84
2021/10/16 07:21:42;;;;;;;2.75;0.85;;;;;;;;;;5063783;28;20052;-83
2021/10/16 07:24:09;;;;;;;3.55;1.13;;;;;;;;;;5073197;28;20052;-84
2021/10/16 07:26:36;;;;;;;7.22;0.90;;;;;;;;;;5065999;28;20072;-84
2021/10/16 07:29:03;;;;;;;3.00;0.90;;;;;;;;;;5056862;28;20071;-84
2021/10/16 07:31:30;;;;;;;2.83;1.08;;;;;;;;;;5076220;28;20103;-84
2021/10/16 07:33:59;;;;;;;2.30;0.80;;;;;;;;;;5066882;28;20063;-84
2021/10/16 07:36:28;;;;;;;4.72;1.23;;;;;;;;;;5073531;28;20024;-84
2021/10/16 07:38:54;;;;;;;3.25;0.95;;;;;;;;;;5069355;28;20158;-84
2021/10/16 07:41:21;;;;;;;4.88;1.38;;;;;;;;;;5070842;28;20040;-83
2021/10/16 07:43:47;;;;;;;3.38;1.02;;;;;;;;;;5071414;28;20566;-84
2021/10/16 07:46:14;;;;;;;2.80;0.90;;;;;;;;;;5070109;28;20032;-84
2021/10/16 07:48:40;;;;;;;3.13;0.90;;;;;;;;;;5071616;28;20064;-83
2021/10/16 07:51:06;;;;;;;1.77;0.70;;;;;;;;;;5072166;28;20056;-83
2021/10/16 07:53:33;;;;;;;2.92;1.25;;;;;;;;;;5071465;28;20487;-83
2021/10/16 07:55:59;;;;;;;3.28;1.05;;;;;;;;;;5074295;28;20029;-84
2021/10/16 07:58:26;;;;;;;2.35;1.00;;;;;;;;;;5066888;28;20494;-83
2021/10/16 08:00:52;;;;;;;3.60;1.00;;;;;;;;;;5069321;28;20087;-84
2021/10/16 08:03:18;;;;;;;2.17;0.88;;;;;;;;;;5071741;28;20052;-84
2021/10/16 08:05:45;;;;;;;2.85;1.08;;;;;;;;;;5071507;28;20047;-84
2021/10/16 08:08:12;;;;;;;3.80;1.05;;;;;;;;;;5071518;28;20437;-84
2021/10/16 08:10:39;;;;;;;3.25;1.02;;;;;;;;;;5071492;28;20071;-83
2021/10/16 08:13:05;;;;;;;1.75;0.90;;;;;;;;;;5071656;28;20059;-83
2021/10/16 08:15:32;;;;;;;3.38;0.90;;;;;;;;;;5069967;28;20170;-84
2021/10/16 08:17:58;;;;;;;2.17;0.73;;;;;;;;;;5069689;28;20056;-84
2021/10/16 08:20:24;;;;;;;1.58;0.80;;;;;;;;;;5067582;28;20072;-84
2021/10/16 08:22:51;;;;;;;1.73;0.60;;;;;;;;;;5069289;28;20439;-84
2021/10/16 08:25:17;;;;;;;2.55;1.10;;;;;;;;;;5061406;28;20064;-83
2021/10/16 08:27:47;;;;;;;4.30;0.90;;;;;;;;;;5071496;28;20060;-84
2021/10/16 08:30:15;;;;;;;3.30;0.90;;;;;;;;;;5059363;28;20091;-85
2021/10/16 08:32:41;;;;;;;3.10;1.10;;;;;;;;;;5062966;28;20060;-83
2021/10/16 08:35:08;;;;;;;3.08;0.85;;;;;;;;;;5066938;28;20060;-84
2021/10/16 08:37:35;;;;;;;2.20;0.90;;;;;;;;;;5074629;28;20594;-83
2021/10/16 08:40:01;;;;;;;2.60;1.20;;;;;;;;;;5071344;28;20048;-83
2021/10/16 08:42:28;;;;;;;2.20;1.10;;;;;;;;;;5071698;28;20036;-84
2021/10/16 08:44:58;;;;;;;1.63;0.75;;;;;;;;;;5069433;28;20079;-84
2021/10/16 08:47:28;;;;;;;2.08;0.98;;;;;;;;;;5071843;28;20101;-83
2021/10/16 08:49:57;;;;;;;2.70;0.93;;;;;;;;;;5071310;28;20033;-83
2021/10/16 08:52:23;;;;;;;2.67;0.88;;;;;;;;;;5068322;28;20036;-82
2021/10/16 08:54:50;;;;;;;4.75;1.05;;;;;;;;;;5068271;28;20435;-82
2021/10/16 08:57:16;;;;;;;2.05;1.00;;;;;;;;;;5070468;28;20428;-82
2021/10/16 08:59:42;;;;;;;1.92;0.90;;;;;;;;;;5068287;28;20089;-84
2021/10/16 09:02:09;;;;;;;1.63;0.75;;;;;;;;;;5070969;28;20029;-82
2021/10/16 09:04:36;;;;;;;2.45;0.82;;;;;;;;;;5069441;28;20509;-81
2021/10/16 09:07:19;;;;;;;1.92;0.80;;;;;;;;;;5073115;28;20504;-82
2021/10/16 09:09:47;;;;;;;2.10;0.70;;;;;;;;;;5063594;28;20064;-84
2021/10/16 09:12:13;;;;;;;4.60;1.17;;;;;;;;;;5067398;28;20113;-82
2021/10/16 09:14:50;;;;;;;2.35;1.02;;;;;;;;;;5069046;28;20189;-82
2021/10/16 09:17:17;;;;;;;2.40;0.82;;;;;;;;;;5068862;28;20033;-83
2021/10/16 09:19:44;;;;;;;2.88;1.08;;;;;;;;;;5068301;28;20037;-83
2021/10/16 09:22:11;;;;;;;2.22;1.00;;;;;;;;;;5070125;28;20056;-83
2021/10/16 09:24:38;;;;;;;2.60;1.00;;;;;;;;;;5068138;28;20403;-83
2021/10/16 09:27:18;;;;;;;3.10;0.90;;;;;;;;;;5068490;28;20137;-84
2021/10/16 09:29:49;;;;;;;3.08;0.90;;;;;;;;;;5073417;28;20052;-83
2021/10/16 09:32:17;;;;;;;2.40;0.95;;;;;;;;;;5068594;28;20041;-84
2021/10/16 09:34:44;;;;;;;2.55;0.93;;;;;;;;;;5080697;28;20085;-84
2021/10/16 09:37:18;;;;;;;3.42;1.00;;;;;;;;;;5070252;28;20102;-84
2021/10/16 09:39:44;;;;;;;3.08;0.80;;;;;;;;;;5073277;28;20504;-83
2021/10/16 09:42:11;;;;;;;1.73;0.80;;;;;;;;;;5071924;28;20456;-84
2021/10/16 09:44:38;;;;;;;2.63;0.95;;;;;;;;;;5070859;28;20484;-83
2021/10/16 09:47:15;;;;;;;3.70;0.98;;;;;;;;;;5072529;28;20694;-83
2021/10/16 09:49:57;;;;;;;3.22;1.10;;;;;;;;;;5068624;28;20437;-83
2021/10/16 09:52:33;;;;;;;2.88;0.90;;;;;;;;;;5067694;28;20083;-84
2021/10/16 09:54:59;;;;;;;2.88;0.90;;;;;;;;;;5064178;28;21283;-84
2021/10/16 09:57:27;;;;;;;3.17;1.15;;;;;;;;;;5070705;28;20048;-84
2021/10/16 09:59:53;;;;;;;2.67;1.20;;;;;;;;;;5067334;28;20068;-84
2021/10/16 10:02:20;;;;;;;3.58;0.90;;;;;;;;;;5069411;28;20098;-84
2021/10/16 10:04:47;;;;;;;2.88;0.90;;;;;;;;;;5065367;28;20415;-84
2021/10/16 10:07:14;;;;;;;3.67;1.42;;;;;;;;;;5069915;28;20117;-84
2021/10/16 10:09:41;;;;;;;3.83;1.02;;;;;;;;;;5070870;28;20110;-83
2021/10/16 10:12:08;;;;;;;2.38;0.90;;;;;;;;;;5067920;28;20044;-84
2021/10/16 10:14:37;;;;;;;3.88;1.08;;;;;;;;;;5065283;28;20040;-83
2021/10/16 10:17:05;;;;;;;4.40;1.05;;;;;;;;;;5067959;28;20044;-83
2021/10/16 10:19:36;;;;;;;3.08;1.10;;;;;;;;;;5063425;28;20068;-83
2021/10/16 10:22:02;;;;;;;3.05;1.08;;;;;;;;;;5066826;28;20056;-84
2021/10/16 10:24:36;;;;;;;2.53;0.90;;;;;;;;;;5067616;28;20029;-84
2021/10/16 10:27:09;;;;;;;2.10;1.08;;;;;;;;;;5059509;28;21554;-84
2021/10/16 10:29:37;;;;;;;2.13;0.88;;;;;;;;;;5066259;28;20040;-83
2021/10/16 10:32:05;;;;;;;4.03;1.02;;;;;;;;;;5066478;28;20068;-84
2021/10/16 10:34:34;;;;;;;2.50;0.90;;;;;;;;;;5067254;28;20562;-83
2021/10/16 10:37:01;;;;;;;1.83;0.70;;;;;;;;;;5066469;28;21991;-84
2021/10/16 10:39:33;;;;;;;3.40;1.00;;;;;;;;;;5065690;28;20062;-84
2021/10/16 10:42:03;;;;;;;4.00;0.98;;;;;;;;;;5063560;28;20528;-84
2021/10/16 10:44:39;;;;;;;1.60;0.73;;;;;;;;;;5066804;28;20053;-83
2021/10/16 10:47:20;;;;;;;3.28;1.15;;;;;;;;;;5061705;28;20066;-85
2021/10/16 10:49:46;;;;;;;;;;;;;;;;;;5063560;28;20444;-84
2021/10/16 10:52:14;;;;;;;2.88;1.13;;;;;;;;;;5071887;28;19960;-84
2021/10/16 10:54:40;;;;;;;3.08;0.93;;;;;;;;;;5068532;28;20090;-82
2021/10/16 10:57:07;;;;;;;3.20;1.00;;;;;;;;;;5062970;28;20032;-84
2021/10/16 10:59:54;;;;;;;2.50;0.98;;;;;;;;;;5077517;28;20036;-83
2021/10/16 11:02:30;;;;;;;2.72;0.70;;;;;;;;;;5082152;28;22133;-83
2021/10/16 11:04:58;;;;;;;2.60;0.90;;;;;;;;;;5088332;28;20032;-83
2021/10/16 11:07:45;;;;;;;4.00;0.98;;;;;;;;;;5079752;28;20040;-84
2021/10/16 11:10:12;;;;;;;2.50;0.80;;;;;;;;;;5087311;28;22116;-82
2021/10/16 11:12:40;;;;;;;2.08;0.82;;;;;;;;;;5083342;28;20553;-83
2021/10/16 11:15:07;;;;;;;3.15;0.90;;;;;;;;;;5083323;28;20040;-83
2021/10/16 11:17:35;;;;;;;2.35;0.95;;;;;;;;;;5077214;28;20040;-83
2021/10/16 11:20:02;;;;;;;1.90;0.80;;;;;;;;;;5078685;28;21379;-83
2021/10/16 11:22:42;;;;;;;2.78;0.80;;;;;;;;;;5083814;28;20032;-83
2021/10/16 11:25:09;;;;;;;3.00;0.90;;;;;;;;;;5080435;28;20033;-85
2021/10/16 11:27:35;;;;;;;2.08;0.70;;;;;;;;;;5085559;28;20094;-87
2021/10/16 11:30:03;;;;;;;4.78;0.93;;;;;;;;;;5090754;28;20024;-86
2021/10/16 11:32:33;;;;;;;2.95;1.00;;;;;;;;;;5086330;28;20045;-88
2021/10/16 11:34:59;;;;;;;3.50;1.00;;;;;;;;;;5078549;28;20033;-86
2021/10/16 11:37:36;;;;;;;2.72;0.85;;;;;;;;;;5084320;28;20028;-86
2021/10/16 11:40:10;;;;;;;2.45;0.90;;;;;;;;;;5073522;28;21337;-86
2021/10/16 11:42:38;;;;;;;3.03;0.77;;;;;;;;;;5074161;28;20033;-86
2021/10/16 11:45:11;;;;;;;2.22;0.73;;;;;;;;;;5072912;28;20085;-85
2021/10/16 11:47:38;;;;;;;2.72;0.73;;;;;;;;;;5061617;28;21074;-85
2021/10/16 11:50:11;;;;;;;3.00;0.88;;;;;;;;;;5073033;28;20036;-86
2021/10/16 11:52:38;;;;;;;4.07;1.00;;;;;;;;;;5073599;28;20037;-84
2021/10/16 11:55:11;;;;;;;1.90;0.77;;;;;;;;;;5072125;28;20059;-86
2021/10/16 11:57:38;;;;;;;2.42;0.80;;;;;;;;;;5070895;28;20032;-85
2021/10/16 12:00:17;;;;;;;1.63;0.90;;;;;;;;;;5071906;28;20036;-85
2021/10/16 12:02:43;;;;;;;2.25;0.95;;;;;;;;;;5065132;28;20052;-86
2021/10/16 12:05:10;;;;;;;2.15;0.63;;;;;;;;;;5077231;28;20101;-87
2021/10/16 12:07:37;;;;;;;2.83;0.90;;;;;;;;;;5071798;28;20033;-87
2021/10/16 12:10:22;;;;;;;3.60;0.80;;;;;;;;;;5072028;28;20055;-86
2021/10/16 12:13:02;;;;;;;3.45;0.80;;;;;;;;;;5076771;28;20416;-85
2021/10/16 12:15:45;;;;;;;3.83;0.75;;;;;;;;;;5071912;28;20039;-85
2021/10/16 12:18:16;;;;;;;2.33;0.80;;;;;;;;;;5076552;28;20028;-86
2021/10/16 12:20:43;;;;;;;3.20;1.03;;;;;;;;;;5073388;28;20028;-86
2021/10/16 12:23:09;;;;;;;3.58;0.75;;;;;;;;;;5069327;28;20032;-86
2021/10/16 12:25:46;;;;;;;2.03;0.70;;;;;;;;;;5074173;28;20036;-85
2021/10/16 12:28:12;;;;;;;2.90;0.73;;;;;;;;;;5081276;28;20074;-86
2021/10/16 12:30:57;;;;;;;2.42;0.82;;;;;;;;;;5071633;28;20074;-87
2021/10/16 12:33:23;;;;;;;2.97;0.77;;;;;;;;;;5076956;28;20068;-86
2021/10/16 12:35:56;;;;;;;2.45;0.80;;;;;;;;;;5070879;28;20032;-85
2021/10/16 12:38:23;;;;;;;4.65;1.17;;;;;;;;;;5071487;28;20040;-86
2021/10/16 12:40:49;;;;;;;2.33;0.80;;;;;;;;;;5069597;28;20095;-85
2021/10/16 12:43:27;;;;;;;3.15;0.80;;;;;;;;;;5070531;28;20040;-86
2021/10/16 12:45:54;;;;;;;2.38;0.60;;;;;;;;;;5072321;28;20037;-86
2021/10/16 12:48:28;;;;;;;3.30;0.93;;;;;;;;;;5071470;28;20130;-85
2021/10/16 12:50:57;;;;;;;3.63;0.90;;;;;;;;;;5070162;28;20071;-85
2021/10/16 12:53:24;;;;;;;2.42;0.77;;;;;;;;;;5067333;28;20519;-86
2021/10/16 12:55:51;;;;;;;2.60;0.82;;;;;;;;;;5066912;28;20049;-85
2021/10/16 12:58:17;;;;;;;2.53;0.90;;;;;;;;;;5071892;28;20058;-86
2021/10/16 13:00:45;;;;;;;1.98;0.80;;;;;;;;;;5069923;28;20044;-85
2021/10/16 13:03:13;;;;;;;2.60;0.80;;;;;;;;;;5065889;28;20033;-86
2021/10/16 13:05:40;;;;;;;2.03;0.65;;;;;;;;;;5067659;28;20036;-86
2021/10/16 13:08:07;;;;;;;1.95;0.70;;;;;;;;;;5069549;28;20020;-86
2021/10/16 13:10:35;;;;;;;2.17;0.70;;;;;;;;;;5069654;28;20032;-87
2021/10/16 13:13:02;;;;;;;1.63;0.63;;;;;;;;;;5062245;28;20489;-85
2021/10/16 13:15:29;;;;;;;2.65;0.95;;;;;;;;;;5070946;28;20048;-86
2021/10/16 13:17:55;;;;;;;1.40;0.60;;;;;;;;;;5061813;28;20106;-87
2021/10/16 13:20:22;;;;;;;3.15;1.02;;;;;;;;;;5067648;28;20055;-86
2021/10/16 13:22:48;;;;;;;1.52;0.50;;;;;;;;;;5068444;28;20464;-87
2021/10/16 13:25:15;;;;;;;1.67;0.57;;;;;;;;;;5068609;28;20036;-86
2021/10/16 13:27:41;;;;;;;3.63;0.80;;;;;;;;;;5067593;28;20048;-86
2021/10/16 13:30:09;;;;;;;2.38;0.80;;;;;;;;;;5082299;28;20499;-85
2021/10/16 13:32:36;;;;;;;2.63;0.80;;;;;;;;;;5071229;28;20060;-87
2021/10/16 13:35:04;;;;;;;1.92;0.60;;;;;;;;;;5076230;28;20140;-86
2021/10/16 13:37:31;;;;;;;2.75;0.90;;;;;;;;;;5076583;28;20040;-86
2021/10/16 13:39:57;;;;;;;2.65;0.77;;;;;;;;;;5073804;28;20041;-86
2021/10/16 13:42:24;;;;;;;1.35;0.73;;;;;;;;;;5081818;28;20086;-86
2021/10/16 13:44:50;;;;;;;2.88;0.70;;;;;;;;;;5064768;28;20029;-86
2021/10/16 13:47:17;;;;;;;2.63;0.95;;;;;;;;;;5078084;28;20029;-86
2021/10/16 13:49:43;;;;;;;3.63;0.85;;;;;;;;;;5078262;28;20037;-87
2021/10/16 13:52:11;;;;;;;2.00;0.75;;;;;;;;;;5080423;28;20496;-87
2021/10/16 13:54:37;;;;;;;1.63;0.50;;;;;;;;;;5077581;28;20036;-86
2021/10/16 13:57:04;;;;;;;1.10;0.50;;;;;;;;;;5078504;28;20032;-86
2021/10/16 13:59:30;;;;;;;1.65;0.80;;;;;;;;;;5069566;28;20044;-85
2021/10/16 14:01:56;;;;;;;2.53;0.60;;;;;;;;;;5071286;28;20029;-86
2021/10/16 14:04:23;;;;;;;2.90;0.90;;;;;;;;;;5072408;28;20040;-86
2021/10/16 14:06:49;;;;;;;1.98;0.75;;;;;;;;;;5069787;28;20040;-87
2021/10/16 14:09:16;;;;;;;2.30;0.80;;;;;;;;;;5073346;28;20040;-86
2021/10/16 14:11:42;;;;;;;2.13;0.65;;;;;;;;;;5069266;28;20527;-86
2021/10/16 14:14:09;;;;;;;1.45;0.63;;;;;;;;;;5067102;28;20376;-86
2021/10/16 14:16:36;;;;;;;1.25;0.70;;;;;;;;;;5068667;28;20040;-83
2021/10/16 14:19:03;;;;;;;2.70;0.73;;;;;;;;;;5068239;28;20056;-86
2021/10/16 14:21:29;;;;;;;2.22;0.80;;;;;;;;;;5071977;28;20060;-85
2021/10/16 14:23:55;;;;;;;1.65;0.50;;;;;;;;;;5071130;28;20064;-84
2021/10/16 14:26:22;;;;;;;2.97;0.85;;;;;;;;;;5071300;28;20087;-85
2021/10/16 14:28:48;;;;;;;2.72;0.82;;;;;;;;;;5068607;28;20060;-87
2021/10/16 14:31:15;;;;;;;2.85;0.70;;;;;;;;;;5066866;28;20063;-86
2021/10/16 14:33:42;;;;;;;1.60;0.65;;;;;;;;;;5069659;28;20040;-85
2021/10/16 14:36:08;;;;;;;2.05;0.60;;;;;;;;;;5064216;28;20063;-87
2021/10/16 14:38:35;;;;;;;2.03;0.68;;;;;;;;;;5071716;28;20060;-87
2021/10/16 14:41:01;;;;;;;2.00;0.70;;;;;;;;;;5058330;28;20404;-85
2021/10/16 14:43:28;;;;;;;2.92;0.60;;;;;;;;;;5068331;28;20064;-86
2021/10/16 14:45:54;;;;;;;1.73;0.60;;;;;;;;;;5068994;28;20064;-87